Aeroporto :
LOGIN :

Iscrizione | Disclaimer

   EN    FR    IT 

 










Sommario :    VFR   VFR Marginale   IFR   IFR Intensivo   IFR Molto Intensivo
Visibilità : 
Base nubi : 
>= 8 km
>= 3000ft
5 / 8 km
1000 / 3000 ft
1500m / 5 km
500 / 1000 ft
800 / 1500m
200 / 500 ft
< 800m
< 200 ft
Simboli :   Temporali  Nebbia  Neve Forte  Precipitazioni Forti  Vento > 20 kt
SIGMETs :   Varie  Temporali  Ghiacco  Turbolenza  Onda orograficha  Ceneri Vulcaniche






- Altitudine del aeroporto : 100 ft
- Codice IATA : DCI


LIED - Decimomannu Air Base

ULTIMO METAR :
  • 251055Z 33005KT CAVOK 19/04 Q1016 RMK SCT SCT200 VIS MIN 9999 WIND THR35 33005KT WIND THR17 /////KT BLU

METARs OBSOLETI :
  • 250955Z 32003KT CAVOK 16/09 Q1017 RMK SCT SCT200 VIS MIN 9999 WIND THR35 33003KT WIND THR17 /////KT BLU
  • 250855Z 33003KT CAVOK 13/09 Q1017 RMK BKN BKN200 VIS MIN 9999 WIND THR35 32003KT WIND THR17 /////KT BLU

TAF TAF LIED
Valido dal 25 a 09 ore il 25 a 18 ore UTC


250800Z 2509/2518 30013KT 9999 SCT025



MetMap, La meteo Aeronautica in un colpo d'occhio ! - Copyright ORBIFLY Dicembre 2007 - Disclaimer

ORBIFLY MET'MAP TEAM :

Programmazione e sviluppo : Alexandra Zaïnal
Concezione : Baudouin d'Aumeries
Aiuto per la programmazione : Marc-Olivier Méhu
Supporto tecnico e logistico : Manuel Goepfert
Aiuto per la traduzione : Arnaldo La Scala

Contatto : metmap@orbifly.com




FONTI E CREDITI :

   NOAA